MDLRMDPP

Guest
Details From MDLR - La Romana Casa De Campo Intl
To MDPP - Puerto Plata Gregorio Luperon Intl
Flight Number -
Tags generated
Created
Modified
Stats Distance 123 nm / 227 km
Max Altitude 12,900 ft / 3,932 m
Waypoints 5
Social Downloads 1
Likes 0
Share VATSIM

Download

Looking for another format? Having issues loading an existing format? Contact us
Advertisement - Login to hide

Notes

Basic altitude profile: - Ascent Rate: 2500ft/min - Ascent Speed: 250kts - Cruise Altitude: 35000ft - Cruise Speed: 420kts - Descent Rate: 1500ft/min - Descent Speed: 250kts Options: - Use NATs: yes - Use PACOTS: yes - Use low airways: yes - Use high airways: yes

Route

MDLR POBIR W9 KERSO MDPP

ID Type Via Altitude Latitude Longitude Leg Dist Tot Dist Heading (true) Name
O MDLR APT - 0 ft / 0 m 18.45071˚ -68.91183˚ - 0 nm - La Romana Casa De Campo Intl
POBIR FIX - 7,100 ft / 2,164 m 18.66722˚ -69.18139˚ 20 nm 20 nm 310° / 310° -
BIBOK FIX W9 (AWY-LO) 10,100 ft / 3,078 m 18.75639˚ -69.29139˚ 8 nm 28 nm 311° / 311° -
KERSO FIX W9 (AWY-LO) 12,900 ft / 3,932 m 19.05083˚ -69.69750˚ 29 nm 57 nm 308° / 307° -
O MDPP APT - 0 ft / 0 m 19.75790˚ -70.57003˚ 65 nm 122 nm 311° / 311° Puerto Plata Gregorio Luperon Intl

Altitude Profile

Advertisement - Login to hide

MDLR

Details ICAO MDLR (LRM)
Name La Romana Casa De Campo Intl
Region Dominican Republic
Timezone America/Santo_Domingo (UTC-4.0)
Stats Elevation 238 ft / 73 m (AMSL)
Location 18.450713° -68.911834°
Runways 1
Magnetic Variation 11.909° W

METAR

MDLR 172300Z 07006KT 9999 FEW018 25/22 Q1017

Decode

TAF

Not found

Departure Runways

ID Width Length Bearing (true) Bearing (mag) Surface Threshold Offset Overrun Length
11 148 ft / 45 m 9,666 ft / 2,946 m 97.07° 108.98° Concrete 0 ft / 0 m 200 ft / 61 m
29 148 ft / 45 m 9,666 ft / 2,946 m 277.08° 288.99° Concrete 0 ft / 0 m 200 ft / 61 m

MDPP

Details ICAO MDPP (POP)
Name Puerto Plata Gregorio Luperon Intl
Region Dominican Republic
Timezone America/Santo_Domingo (UTC-4.0)
Stats Elevation 15 ft / 5 m (AMSL)
Location 19.757900° -70.570035°
Runways 1
Magnetic Variation 11.229° W

METAR

MDPP 172300Z 08010KT 9999 FEW020 26/22 Q1018

Decode

TAF

Not found

Destination Runways

ID Width Length Bearing (true) Bearing (mag) Surface Threshold Offset Overrun Length
08 151 ft / 46 m 10,101 ft / 3,079 m 72.95° 84.18° Asphalt 0 ft / 0 m 0 ft / 0 m
26 151 ft / 46 m 10,101 ft / 3,079 m 252.95° 264.18° Asphalt 0 ft / 0 m 0 ft / 0 m